Flight Track Log - Related Links

Times and Time Zones

All times are in EST time to prevent confusion due to time zone crossing. See the JBU690 flight status page for this flight to view local times or setup timezone preferences in your user account.

Time Position Orientation Groundspeed Altitude Reporting Facility
EST Latitude Longitude Course Direction KTS MPH feet Rate Location/Type
Sat 03:53:44 PM 38.8167 -77.0333 63° Northeast 130 150 1,900  Level Potomac TRACON
Sat 03:54:44 PM 38.7667 -77.0333 180° South 207 238 3,600 2,200 Climbing Potomac TRACON
Sat 03:55:44 PM 38.7500 -76.9500 104° East 290 334 6,300 2,600 Climbing Potomac TRACON
Sat 03:56:00 PM 38.9853 -76.6443 67° East  Level FlightAware Approximate
Sat 03:56:44 PM 38.8000 -76.8667 52° Northeast 325 374 8,800  Level Potomac TRACON
Sat 03:57:00 PM 39.0333 -76.5102 62° Northeast  Level FlightAware Approximate
Sat 03:57:21 PM 38.8397 -76.8139 46° Northeast 322 371 10,600  Level Washington Center
Sat 03:58:00 PM 39.0876 -76.3798 62° Northeast  Level FlightAware Approximate
Sat 03:58:25 PM 38.9036 -76.7222 48° Northeast 342 394 13,500  Level Washington Center
Sat 03:59:00 PM 39.1329 -76.2594 63° Northeast  Level FlightAware Approximate
Sat 03:59:25 PM 38.9586 -76.6089 58° Northeast 374 430 15,300  Level Washington Center
Sat 04:00:29 PM 39.0242 -76.4808 57° Northeast 429 494 17,300 2,274 Climbing Washington Center
Sat 04:01:29 PM 39.0922 -76.3483 56° Northeast 443 510 20,000 2,380 Climbing Washington Center
Sat 04:02:30 PM 39.1603 -76.1681 64° Northeast 473 544 22,100 1,824 Climbing Washington Center
Sat 04:03:34 PM 39.1775 -76.0086 82° East 476 548 23,800 1,500 Climbing Washington Center
Sat 04:04:34 PM 39.2542 -75.8606 56° Northeast 502 578 25,200 1,171 Climbing Washington Center
Sat 04:05:37 PM 39.3547 -75.7214 47° Northeast 532 612 26,200 1,210 Climbing Washington Center
Sat 04:06:38 PM 39.4539 -75.5750 49° Northeast 541 623 27,700 1,728 Climbing Washington Center
Sat 04:07:42 PM 39.5736 -75.3975 49° Northeast 545 627 29,800 1,597 Climbing Washington Center
Sat 04:08:42 PM 39.6731 -75.2514 48° Northeast 541 623 31,000 632 Climbing Washington Center
Sat 04:09:36 PM 39.7642 -75.1222 47° Northeast 551 634 31,000  Level New York Center
Sat 04:10:37 PM 39.8661 -74.9792 47° Northeast 545 627 31,000  Level New York Center
Sat 04:11:39 PM 39.9672 -74.8328 48° Northeast 548 631 31,000  Level New York Center
Sat 04:12:41 PM 40.0708 -74.6842 48° Northeast 552 635 31,000  Level New York Center
Sat 04:13:43 PM 40.1672 -74.5364 49° Northeast 536 617 31,000  Level New York Center
Sat 04:14:44 PM 40.2239 -74.3625 67° East 526 605 31,000  Level New York Center
Sat 04:15:46 PM 40.3317 -74.1753 53° Northeast 541 623 31,000  Level New York Center
Sat 04:16:48 PM 40.4353 -74.0353 46° Northeast 540 621 31,000  Level New York Center
Sat 04:17:49 PM 40.5372 -73.8928 47° Northeast 539 620 31,000  Level New York Center
Sat 04:18:51 PM 40.6419 -73.7450 47° Northeast 539 620 31,000 -871 Level New York Center
Sat 04:19:53 PM 40.7467 -73.5989 47° Northeast 555 639 29,200 -1,935 Descending New York Center
Sat 04:20:55 PM 40.8556 -73.4472 46° Northeast 565 650 27,000 -1,500 Descending New York Center
Sat 04:21:25 PM 40.9161 -73.3603 47° Northeast 559 643 26,900 -1,121 Descending Boston Center
Sat 04:22:26 PM 41.0139 -73.2211 47° Northeast 531 611 25,300 -1,525 Descending Boston Center
Sat 04:23:27 PM 41.1308 -73.1339 29° Northeast 495 570 23,800 -1,131 Descending Boston Center
Sat 04:24:28 PM 41.2294 -73.0214 41° Northeast 483 556 23,000 -393 Descending Boston Center
Sat 04:25:29 PM 41.2892 -72.8475 65° Northeast 490 564 23,000  Level Boston Center
Sat 04:26:29 PM 41.3450 -72.6806 66° East 490 564 23,000  Level Boston Center
Sat 04:27:31 PM 41.4014 -72.5122 66° East 491 565 23,000  Level Boston Center
Sat 04:28:33 PM 41.4572 -72.3450 66° East 491 565 23,000  Level Boston Center
Sat 04:29:34 PM 41.5125 -72.1789 66° East 491 565 23,000 -446 Level Boston Center
Sat 04:30:34 PM 41.5619 -72.0300 66° East 491 565 22,100 -1,438 Descending Boston Center
Sat 04:31:35 PM 41.6133 -71.8714 67° East 473 544 20,100 -2,244 Descending Boston Center
Sat 04:32:37 PM 41.6731 -71.6906 66° East 454 522 17,500 -1,918 Descending Boston Center
Sat 04:33:37 PM 41.7158 -71.5539 67° East 401 461 16,200 -1,513 Descending Boston Center
Sat 04:34:36 PM 41.7631 -71.4125 66° East 401 461 14,500 -1,623 Descending Boston Center
Sat 04:35:39 PM 41.8050 -71.2808 67° East 385 443 12,900 -1,597 Descending Boston Center
Sat 04:36:40 PM 41.8478 -71.1481 67° East 362 417 11,200 -1,600 Descending Boston Center
Sat 04:37:39 PM 41.8986 -71.0342 59° Northeast 358 412 9,700 -1,500 Descending Boston Center
Sat 04:38:40 PM 41.9494 -70.9267 58° Northeast 345 397 8,200 -829 Descending Boston Center
Sat 04:39:42 PM 42.0033 -70.8217 55° Northeast 342 394 8,000 -98 Descending Boston Center
Sat 04:40:43 PM 42.0561 -70.7164 56° Northeast 341 392 8,000 -295 Level Boston Center
Sat 04:41:44 PM 42.1119 -70.6336 48° Northeast 314 361 7,400 -878 Descending Boston Center
Sat 04:42:46 PM 42.1903 -70.5953 20° North 303 349 6,200 -700 Descending Boston Center
Sat 04:43:44 PM 42.2636 -70.5428 28° Northeast 301 346 6,000 -98 Descending Boston Center
Sat 04:44:49 PM 42.3500 -70.5500 356° North 266 306 6,000  Level KA90
Sat 04:45:49 PM 42.4167 -70.6000 331° Northwest 244 281 6,000  Level KA90
Sat 04:46:49 PM 42.4667 -70.6333 334° Northwest 247 284 6,000  Level KA90
Sat 04:47:49 PM 42.5333 -70.6833 331° Northwest 251 289 6,000 -150 Level KA90
Sat 04:48:49 PM 42.6000 -70.7333 331° Northwest 247 284 5,700 -500 Descending KA90
Sat 04:49:49 PM 42.6500 -70.7667 334° Northwest 249 287 5,000 -290 Descending KA90
Sat 04:50:53 PM 42.7208 -70.7372 17° North 274 315 5,100 48 Climbing Boston Center
Sat 04:51:54 PM 42.7842 -70.7303 North 247 284 5,100 -397 Level Boston Center
Sat 04:52:54 PM 42.7714 -70.7856 253° West 161 185 4,300 -496 Descending Boston Center
Sat 04:53:55 PM 42.7364 -70.8258 220° Southwest 161 185 4,100 -99 Descending Boston Center
Sat 04:54:55 PM 42.6967 -70.8447 199° South 152 175 4,100  Level Boston Center
Sat 04:55:58 PM 42.6603 -70.8617 199° South 143 165 4,100  Level Boston Center
Sat 04:56:59 PM 42.6239 -70.8797 200° South 141 162 4,100 -54 Level Boston Center
Sat 04:57:50 PM 42.5833 -70.9000 200° South 143 165 4,000 -108 Descending KA90
Sat 04:58:50 PM 42.5500 -70.9167 200° South 141 162 3,900 -400 Descending KA90
Sat 04:59:50 PM 42.5167 -70.9333 200° South 141 162 3,200 -800 Descending KA90
Sat 05:00:50 PM 42.4833 -70.9500 200° South 144 166 2,300 -850 Descending KA90
Sat 05:01:50 PM 42.4500 -70.9667 200° South 140 161 1,500 -750 Descending KA90
Sat 05:02:50 PM 42.4167 -70.9833 200° South 124 143 800 -700 Descending KA90
Sat 05:03:50 PM 42.3833 -71.0000 200° South 125 144 100 -700 Descending KA90

Login

Don't have an account? Register now (free) for customized features, flight alerts, and more!